Time;durP1;ratioP1;P1;durP2;ratioP2;P2;SDS_P1;SDS_P2;PMS_P1;PMS_P2;Temp;Humidity;BMP_temperature;BMP_pressure;BME280_temperature;BME280_humidity;BME280_pressure;Samples;Min_cycle;Max_cycle;Signal;HPM_P1;HPM_P2
2023/09/16 00:00:13;;;;;;;12.13;9.10;;;14.80;99.90;;;;;;5030080;28;20045;-66
2023/09/16 00:02:40;;;;;;;15.85;10.00;;;14.80;99.90;;;;;;5030434;28;20489;-66
2023/09/16 00:05:07;;;;;;;12.23;9.45;;;14.70;99.90;;;;;;5014258;28;20465;-67
2023/09/16 00:07:34;;;;;;;14.43;10.25;;;14.70;99.90;;;;;;5015748;28;20041;-66
2023/09/16 00:10:01;;;;;;;12.23;9.93;;;14.70;99.90;;;;;;5034288;28;20099;-68
2023/09/16 00:12:29;;;;;;;20.48;10.18;;;14.60;99.90;;;;;;5032672;28;20053;-65
2023/09/16 00:14:56;;;;;;;14.13;9.13;;;14.60;99.90;;;;;;5017664;28;20050;-65
2023/09/16 00:17:24;;;;;;;13.10;10.02;;;14.50;99.90;;;;;;5017496;28;20054;-65
2023/09/16 00:19:53;;;;;;;15.07;10.82;;;14.50;99.90;;;;;;5017208;28;20045;-66
2023/09/16 00:22:21;;;;;;;12.80;10.52;;;14.40;99.90;;;;;;5034345;28;20450;-65
2023/09/16 00:24:48;;;;;;;13.40;11.45;;;14.40;99.90;;;;;;5017934;28;20137;-66
2023/09/16 00:27:15;;;;;;;14.57;10.55;;;14.40;99.90;;;;;;5031542;28;20049;-66
2023/09/16 00:29:43;;;;;;;18.77;11.52;;;14.30;99.90;;;;;;5029535;28;20053;-67
2023/09/16 00:32:10;;;;;;;14.90;10.55;;;14.40;99.90;;;;;;5029838;28;20397;-67
2023/09/16 00:34:37;;;;;;;14.25;10.70;;;14.30;99.90;;;;;;5029280;28;20144;-67
2023/09/16 00:37:04;;;;;;;13.93;10.40;;;14.30;99.90;;;;;;5030074;28;20068;-66
2023/09/16 00:39:32;;;;;;;15.25;11.30;;;14.20;99.90;;;;;;5014602;28;20464;-66
2023/09/16 00:41:59;;;;;;;15.27;10.73;;;14.20;99.90;;;;;;5029811;28;20401;-66
2023/09/16 00:44:26;;;;;;;13.95;10.73;;;14.20;99.90;;;;;;5029292;28;20049;-65
2023/09/16 00:46:54;;;;;;;17.45;11.48;;;14.10;99.90;;;;;;5029434;28;20049;-66
2023/09/16 00:49:21;;;;;;;15.70;11.52;;;14.10;99.90;;;;;;5029399;28;20380;-67
2023/09/16 00:51:48;;;;;;;18.38;12.23;;;14.00;99.90;;;;;;5029664;28;20057;-67
2023/09/16 00:54:15;;;;;;;14.07;11.13;;;14.00;99.90;;;;;;5032098;28;20060;-67
2023/09/16 00:56:43;;;;;;;14.77;11.27;;;14.00;99.90;;;;;;5020007;28;20501;-67
2023/09/16 00:59:11;;;;;;;15.55;11.00;;;13.90;99.90;;;;;;5032673;28;20056;-67
2023/09/16 01:01:39;;;;;;;14.15;10.57;;;13.90;99.90;;;;;;5031549;28;20049;-68
2023/09/16 01:04:08;;;;;;;14.43;12.15;;;13.80;99.90;;;;;;5032641;28;20045;-67
2023/09/16 01:06:36;;;;;;;17.25;11.70;;;13.80;99.90;;;;;;5020253;28;20057;-66
2023/09/16 01:09:04;;;;;;;15.07;11.95;;;13.80;99.90;;;;;;5018800;28;20133;-66
2023/09/16 01:11:31;;;;;;;14.80;12.13;;;13.70;99.90;;;;;;5053244;28;20049;-66
2023/09/16 01:13:58;;;;;;;17.60;10.52;;;13.70;99.90;;;;;;5052863;28;20040;-66
2023/09/16 01:16:35;;;;;;;15.55;11.40;;;13.70;99.90;;;;;;5019429;28;20054;-66
2023/09/16 01:19:15;;;;;;;15.52;11.63;;;13.70;99.90;;;;;;5020012;28;20125;-66
2023/09/16 01:21:43;;;;;;;15.00;12.07;;;13.70;99.90;;;;;;5018977;28;20107;-66
2023/09/16 01:24:17;;;;;;;13.77;11.48;;;13.70;99.90;;;;;;5019835;28;20083;-66
2023/09/16 01:26:46;;;;;;;16.25;12.85;;;13.60;99.90;;;;;;5019839;28;20502;-66
2023/09/16 01:29:13;;;;;;;16.38;11.88;;;13.10;99.90;;;;;;5052537;28;20496;-66
2023/09/16 01:31:41;;;;;;;16.08;11.85;;;13.60;99.90;;;;;;5019785;28;20301;-64
2023/09/16 01:34:13;;;;;;;16.38;11.80;;;13.60;99.90;;;;;;5019892;28;20056;-65
2023/09/16 01:36:42;;;;;;;15.80;11.10;;;13.60;99.90;;;;;;5034675;28;20412;-65
2023/09/16 01:39:11;;;;;;;18.15;12.02;;;13.50;99.90;;;;;;5019358;28;20507;-65
2023/09/16 01:41:39;;;;;;;14.43;11.20;;;13.50;99.90;;;;;;5019719;28;20433;-65
2023/09/16 01:44:08;;;;;;;18.38;12.63;;;13.50;99.90;;;;;;5018637;28;20053;-65
2023/09/16 01:46:35;;;;;;;15.25;11.23;;;13.50;99.90;;;;;;5019591;28;20048;-66
2023/09/16 01:49:02;;;;;;;15.95;12.20;;;13.50;99.90;;;;;;5034069;28;20288;-66
2023/09/16 01:51:28;;;;;;;19.02;12.75;;;13.50;99.90;;;;;;5033459;28;20416;-67
2023/09/16 01:53:55;;;;;;;14.40;12.02;;;13.50;99.90;;;;;;5017010;28;20053;-66
2023/09/16 01:56:22;;;;;;;16.92;11.63;;;13.50;99.90;;;;;;5019044;28;20103;-67
2023/09/16 01:58:49;;;;;;;15.50;11.82;;;13.40;99.90;;;;;;5015162;28;20049;-67
2023/09/16 02:01:17;;;;;;;15.73;11.63;;;13.40;99.90;;;;;;5033897;28;20102;-65
2023/09/16 02:03:45;;;;;;;13.18;11.35;;;13.40;99.90;;;;;;5050088;28;20064;-65
2023/09/16 02:06:11;;;;;;;16.83;11.05;;;13.40;99.90;;;;;;5019171;28;20481;-66
2023/09/16 02:08:38;;;;;;;16.42;12.35;;;13.40;99.90;;;;;;5018777;28;20049;-66
2023/09/16 02:11:05;;;;;;;16.55;13.32;;;13.40;99.90;;;;;;5018368;28;20139;-66
2023/09/16 02:13:35;;;;;;;15.23;11.48;;;13.40;99.90;;;;;;5018997;28;20076;-66
2023/09/16 02:16:02;;;;;;;15.23;13.07;;;13.30;99.90;;;;;;5018812;28;20044;-66
2023/09/16 02:18:30;;;;;;;19.15;12.60;;;13.20;99.90;;;;;;5033601;28;20485;-66
2023/09/16 02:20:57;;;;;;;15.85;12.93;;;13.20;99.90;;;;;;5018802;28;20050;-66
2023/09/16 02:23:24;;;;;;;14.20;12.50;;;13.10;99.90;;;;;;5018662;28;20057;-67
2023/09/16 02:25:51;;;;;;;19.67;14.15;;;13.20;99.90;;;;;;5018081;28;20050;-67
2023/09/16 02:28:18;;;;;;;18.65;13.73;;;13.20;99.90;;;;;;5018553;28;20045;-65
2023/09/16 02:30:45;;;;;;;20.38;15.15;;;13.20;99.90;;;;;;5018614;28;20381;-64
2023/09/16 02:33:12;;;;;;;17.33;13.18;;;13.10;99.90;;;;;;5050042;28;20114;-65
2023/09/16 02:35:41;;;;;;;16.95;13.07;;;13.20;99.90;;;;;;5018339;28;20528;-65
2023/09/16 02:38:08;;;;;;;16.23;12.40;;;13.10;99.90;;;;;;5018313;28;20133;-65
2023/09/16 02:40:40;;;;;;;16.23;13.13;;;13.10;99.90;;;;;;5017772;28;20406;-65
2023/09/16 02:43:07;;;;;;;19.58;13.10;;;13.10;99.90;;;;;;5051673;28;20529;-65
2023/09/16 02:45:39;;;;;;;19.52;13.80;;;13.10;99.90;;;;;;5018204;28;20056;-65
2023/09/16 02:48:06;;;;;;;16.20;13.13;;;13.10;99.90;;;;;;5051158;28;20049;-66
2023/09/16 02:50:34;;;;;;;18.85;12.50;;;13.10;99.90;;;;;;5030581;28;20409;-66
2023/09/16 02:53:02;;;;;;;19.45;14.93;;;13.10;99.90;;;;;;5029901;28;20049;-65
2023/09/16 02:55:31;;;;;;;18.95;13.77;;;13.10;99.90;;;;;;5030568;28;20068;-66
2023/09/16 02:57:59;;;;;;;15.80;12.35;;;13.10;99.90;;;;;;5016483;28;20045;-66
2023/09/16 03:00:26;;;;;;;13.85;12.32;;;13.00;99.90;;;;;;5017355;28;20050;-66
2023/09/16 03:02:53;;;;;;;17.70;13.80;;;13.00;99.90;;;;;;5018089;28;20111;-66
2023/09/16 03:05:20;;;;;;;17.35;12.57;;;13.00;99.90;;;;;;5033284;28;20059;-66
2023/09/16 03:07:48;;;;;;;19.90;14.63;;;13.00;99.90;;;;;;5017538;28;20056;-65
2023/09/16 03:10:16;;;;;;;18.17;13.75;;;13.00;99.90;;;;;;5017897;28;20048;-65
2023/09/16 03:12:43;;;;;;;19.02;15.00;;;13.00;99.90;;;;;;5017963;28;20056;-65
2023/09/16 03:15:11;;;;;;;18.73;15.27;;;13.00;99.90;;;;;;5017416;28;20044;-65
2023/09/16 03:17:38;;;;;;;20.17;15.57;;;13.00;99.90;;;;;;5018152;28;20068;-66
2023/09/16 03:20:06;;;;;;;19.75;15.45;;;13.00;99.90;;;;;;5017659;28;20037;-65
2023/09/16 03:22:32;;;;;;;20.52;16.90;;;13.00;99.90;;;;;;5017034;28;20099;-64
2023/09/16 03:24:59;;;;;;;20.85;16.40;;;12.90;99.90;;;;;;5031386;28;20485;-68
2023/09/16 03:27:28;;;;;;;22.55;16.65;;;12.90;99.90;;;;;;5017921;28;20099;-68
2023/09/16 03:29:54;;;;;;;21.75;16.52;;;13.00;99.90;;;;;;5017348;28;20087;-69
2023/09/16 03:32:23;;;;;;;18.92;15.82;;;12.90;99.90;;;;;;5021383;28;20103;-66
2023/09/16 03:34:49;;;;;;;18.85;15.15;;;12.90;99.90;;;;;;5021982;28;20493;-65
2023/09/16 03:37:16;;;;;;;18.55;15.48;;;12.90;99.90;;;;;;5024829;28;20053;-66
2023/09/16 03:39:43;;;;;;;23.77;17.95;;;12.90;99.90;;;;;;5021863;28;20053;-67
2023/09/16 03:42:10;;;;;;;21.83;16.77;;;12.90;99.90;;;;;;5021207;28;20966;-67
2023/09/16 03:44:38;;;;;;;20.63;16.65;;;12.80;99.90;;;;;;5021196;28;20391;-66
2023/09/16 03:47:06;;;;;;;21.95;17.58;;;12.80;99.90;;;;;;5021181;28;20514;-66
2023/09/16 03:49:33;;;;;;;19.27;16.02;;;12.80;99.90;;;;;;5037260;28;20568;-67
2023/09/16 03:52:00;;;;;;;20.13;15.57;;;12.80;99.90;;;;;;5021328;28;20048;-66
2023/09/16 03:54:27;;;;;;;18.08;15.40;;;12.80;99.90;;;;;;5021225;28;20049;-66
2023/09/16 03:56:54;;;;;;;21.27;16.98;;;12.80;99.90;;;;;;5053997;28;20044;-66
2023/09/16 03:59:21;;;;;;;18.45;15.40;;;12.70;99.90;;;;;;5021685;28;20057;-66
2023/09/16 04:01:49;;;;;;;21.90;16.02;;;12.70;99.90;;;;;;5020869;28;20162;-66
2023/09/16 04:04:16;;;;;;;25.80;18.35;;;12.70;99.90;;;;;;5020957;28;20057;-67
2023/09/16 04:06:43;;;;;;;19.55;16.65;;;12.70;99.90;;;;;;5021164;28;20053;-65
2023/09/16 04:09:10;;;;;;;23.60;18.73;;;12.70;99.90;;;;;;5020804;28;20053;-65
2023/09/16 04:11:37;;;;;;;24.58;17.63;;;12.70;99.90;;;;;;5018096;28;20378;-65
2023/09/16 04:14:04;;;;;;;24.67;19.25;;;12.70;99.90;;;;;;5054342;28;20052;-65
2023/09/16 04:16:30;;;;;;;22.02;18.50;;;12.70;99.90;;;;;;5054366;28;20045;-65
2023/09/16 04:18:59;;;;;;;22.27;17.17;;;12.70;99.90;;;;;;5053898;28;20377;-66
2023/09/16 04:21:26;;;;;;;22.58;17.70;;;12.80;99.90;;;;;;5021037;28;20045;-67
2023/09/16 04:23:53;;;;;;;22.25;17.13;;;12.70;99.90;;;;;;5020745;28;20094;-66
2023/09/16 04:26:20;;;;;;;22.35;17.88;;;12.70;99.90;;;;;;5020465;28;20045;-66
2023/09/16 04:28:47;;;;;;;23.23;17.48;;;12.70;99.90;;;;;;5020584;28;20128;-67
2023/09/16 04:31:14;;;;;;;22.52;18.33;;;12.70;99.90;;;;;;5053977;28;20037;-66
2023/09/16 04:33:41;;;;;;;25.42;17.98;;;12.70;99.90;;;;;;5018286;28;20073;-67
2023/09/16 04:36:09;;;;;;;20.20;17.13;;;12.70;99.90;;;;;;5036354;28;20442;-67
2023/09/16 04:38:37;;;;;;;20.98;16.38;;;12.70;99.90;;;;;;5020578;28;20049;-68
2023/09/16 04:41:05;;;;;;;20.30;16.77;;;12.70;99.90;;;;;;5020328;28;20045;-67
2023/09/16 04:43:32;;;;;;;17.90;15.23;;;12.60;99.90;;;;;;5019528;28;20049;-68
2023/09/16 04:45:59;;;;;;;19.85;15.00;;;12.60;99.90;;;;;;5052836;28;20098;-68
2023/09/16 04:48:26;;;;;;;20.83;16.85;;;12.60;99.90;;;;;;5020244;28;20049;-67
2023/09/16 04:50:53;;;;;;;23.70;17.90;;;12.60;99.90;;;;;;5020029;28;20056;-67
2023/09/16 04:53:22;;;;;;;21.77;16.15;;;12.60;99.90;;;;;;5053092;28;20044;-67
2023/09/16 04:55:48;;;;;;;21.50;17.13;;;12.60;99.90;;;;;;5017653;28;20446;-67
2023/09/16 04:58:15;;;;;;;18.92;16.75;;;12.50;99.90;;;;;;5020018;28;20049;-67
2023/09/16 05:00:42;;;;;;;23.08;17.73;;;12.60;99.90;;;;;;5029301;28;20496;-68
2023/09/16 05:03:09;;;;;;;20.65;17.80;;;12.50;99.90;;;;;;5019096;28;20056;-68
2023/09/16 05:05:36;;;;;;;26.70;19.23;;;12.60;99.90;;;;;;5053165;28;20049;-66
2023/09/16 05:08:04;;;;;;;23.58;18.45;;;12.50;99.90;;;;;;5019195;28;20064;-65
2023/09/16 05:10:32;;;;;;;23.45;18.90;;;12.60;99.90;;;;;;5020009;28;20057;-68
2023/09/16 05:12:59;;;;;;;22.20;18.20;;;12.60;99.90;;;;;;5019905;28;20488;-67
2023/09/16 05:15:26;;;;;;;22.65;19.70;;;12.60;99.90;;;;;;5052911;28;20446;-70
2023/09/16 05:17:53;;;;;;;25.17;18.77;;;12.60;99.90;;;;;;5034220;28;20041;-69
2023/09/16 05:20:20;;;;;;;23.73;18.10;;;12.60;99.90;;;;;;5032323;28;20053;-70
2023/09/16 05:22:47;;;;;;;22.58;18.25;;;12.60;99.90;;;;;;5031397;28;20045;-67
2023/09/16 05:25:14;;;;;;;21.80;18.02;;;12.60;99.90;;;;;;5031862;28;20519;-67
2023/09/16 05:27:42;;;;;;;19.55;15.80;;;12.60;99.90;;;;;;5031806;28;20045;-67
2023/09/16 05:30:11;;;;;;;18.33;15.90;;;12.60;99.90;;;;;;5032242;28;20045;-67
2023/09/16 05:32:38;;;;;;;22.15;17.10;;;12.70;99.90;;;;;;5031843;28;20547;-66
2023/09/16 05:35:05;;;;;;;22.08;16.98;;;12.70;99.90;;;;;;5018962;28;20088;-66
2023/09/16 05:37:32;;;;;;;22.02;18.05;;;12.70;99.90;;;;;;5034673;28;20045;-66
2023/09/16 05:39:59;;;;;;;20.75;17.17;;;12.70;99.90;;;;;;5019209;28;20046;-66
2023/09/16 05:42:26;;;;;;;23.70;18.25;;;12.80;99.90;;;;;;5018515;28;20041;-65
2023/09/16 05:44:54;;;;;;;26.77;20.88;;;12.80;99.90;;;;;;5019598;28;20061;-66
2023/09/16 05:47:21;;;;;;;23.48;18.73;;;12.90;99.90;;;;;;5019090;28;20050;-66
2023/09/16 05:49:48;;;;;;;21.00;17.70;;;12.90;99.90;;;;;;5019055;28;20072;-66
2023/09/16 05:52:15;;;;;;;21.60;17.35;;;13.20;99.90;;;;;;5020553;28;20049;-64
2023/09/16 05:54:42;;;;;;;22.35;18.58;;;13.30;99.90;;;;;;5039277;28;20060;-65
2023/09/16 05:57:09;;;;;;;21.63;16.38;;;13.40;99.90;;;;;;5021527;28;20086;-65
2023/09/16 05:59:36;;;;;;;23.42;19.55;;;13.50;99.90;;;;;;5021118;28;20053;-64
2023/09/16 06:02:05;;;;;;;22.60;16.75;;;13.60;99.90;;;;;;5032937;28;20057;-64
2023/09/16 06:04:32;;;;;;;24.60;20.67;;;13.60;99.90;;;;;;5032346;28;20402;-66
2023/09/16 06:06:58;;;;;;;23.40;19.48;;;13.70;99.90;;;;;;5023043;28;20057;-66
2023/09/16 06:09:25;;;;;;;25.17;21.17;;;13.70;99.90;;;;;;5023518;28;20095;-70
2023/09/16 06:11:53;;;;;;;27.23;19.90;;;13.80;99.90;;;;;;5027548;28;20550;-66
2023/09/16 06:14:19;;;;;;;25.73;18.83;;;14.00;99.90;;;;;;5030774;28;20051;-67
2023/09/16 06:16:46;;;;;;;23.30;18.88;;;14.10;99.90;;;;;;5032407;28;20099;-66
2023/09/16 06:19:15;;;;;;;25.60;19.65;;;14.30;99.90;;;;;;5031286;28;20056;-66
2023/09/16 06:21:42;;;;;;;23.35;19.42;;;14.40;99.90;;;;;;5027004;28;20095;-66
2023/09/16 06:24:09;;;;;;;21.85;19.05;;;14.50;99.90;;;;;;5027452;28;20112;-65
2023/09/16 06:26:36;;;;;;;22.45;18.88;;;14.60;99.90;;;;;;5027328;28;20100;-66
2023/09/16 06:29:03;;;;;;;24.40;18.85;;;14.70;99.90;;;;;;5032495;28;20052;-65
2023/09/16 06:31:30;;;;;;;25.02;18.20;;;14.80;99.90;;;;;;5027211;28;20060;-65
2023/09/16 06:33:57;;;;;;;19.33;16.60;;;14.90;99.90;;;;;;5030809;28;20048;-65
2023/09/16 06:36:25;;;;;;;21.67;17.70;;;15.10;99.90;;;;;;5025423;28;20397;-65
2023/09/16 06:38:52;;;;;;;22.60;16.92;;;15.20;99.90;;;;;;5032852;28;20385;-65
2023/09/16 06:41:19;;;;;;;24.73;18.58;;;15.30;99.90;;;;;;5044824;28;20044;-67
2023/09/16 06:43:46;;;;;;;20.65;17.38;;;15.40;99.90;;;;;;5033393;28;20114;-66
2023/09/16 06:46:13;;;;;;;20.33;16.58;;;15.50;99.90;;;;;;5039183;28;20037;-66
2023/09/16 06:48:40;;;;;;;20.10;17.05;;;15.50;99.90;;;;;;5031689;28;20496;-66
2023/09/16 06:51:07;;;;;;;17.60;14.95;;;15.80;99.90;;;;;;5027873;28;20452;-64
2023/09/16 06:53:35;;;;;;;21.58;16.67;;;15.90;99.90;;;;;;5025926;28;20084;-66
2023/09/16 06:56:02;;;;;;;20.00;15.02;;;16.50;99.90;;;;;;5023094;28;20064;-66
2023/09/16 06:58:29;;;;;;;16.42;14.00;;;17.70;99.90;;;;;;5021755;28;20541;-68
2023/09/16 07:00:56;;;;;;;17.33;13.90;;;18.90;99.90;;;;;;5021726;28;20571;-66
2023/09/16 07:03:23;;;;;;;15.85;12.07;;;19.90;99.90;;;;;;5032410;28;20116;-67
2023/09/16 07:05:50;;;;;;;15.52;13.10;;;20.90;99.90;;;;;;5025591;28;20061;-67
2023/09/16 07:08:19;;;;;;;15.05;12.13;;;21.70;99.90;;;;;;5023401;28;20060;-66
2023/09/16 07:10:48;;;;;;;12.97;10.63;;;22.50;99.90;;;;;;5022644;28;20049;-66
2023/09/16 07:13:15;;;;;;;13.93;11.18;;;23.00;99.90;;;;;;5026413;28;20559;-66
2023/09/16 07:15:41;;;;;;;14.63;10.57;;;23.50;99.90;;;;;;5028264;28;20072;-66
2023/09/16 07:18:08;;;;;;;11.25;9.77;;;23.80;99.90;;;;;;5026753;28;20103;-65
2023/09/16 07:20:36;;;;;;;11.10;9.90;;;24.30;99.90;;;;;;5026045;28;20405;-66
2023/09/16 07:23:03;;;;;;;14.23;10.93;;;24.70;99.90;;;;;;5023315;28;20382;-67
2023/09/16 07:25:30;;;;;;;14.52;9.23;;;25.20;99.90;;;;;;5026482;28;20049;-66
2023/09/16 07:27:58;;;;;;;10.90;9.35;;;25.60;99.90;;;;;;5023196;28;20057;-67
2023/09/16 07:30:28;;;;;;;10.10;8.27;;;25.80;99.90;;;;;;5021752;28;20049;-66
2023/09/16 07:32:55;;;;;;;10.32;8.70;;;26.60;99.90;;;;;;5028217;28;20384;-66
2023/09/16 07:35:22;;;;;;;11.77;8.55;;;27.00;99.50;;;;;;5024337;28;20052;-67
2023/09/16 07:37:49;;;;;;;11.20;9.60;;;26.50;98.30;;;;;;5022799;28;20124;-67
2023/09/16 07:40:16;;;;;;;9.25;7.82;;;27.00;98.30;;;;;;5030614;28;20060;-66
2023/09/16 07:42:43;;;;;;;9.43;8.00;;;27.40;97.70;;;;;;5016979;28;20615;-67
2023/09/16 07:45:12;;;;;;;10.85;8.45;;;27.70;96.80;;;;;;5026094;28;20057;-66
2023/09/16 07:47:39;;;;;;;10.43;8.32;;;28.00;96.20;;;;;;5025382;28;20713;-66
2023/09/16 07:50:06;;;;;;;9.88;7.82;;;27.90;95.40;;;;;;5031102;28;20049;-67
2023/09/16 07:52:33;;;;;;;10.18;8.15;;;27.90;95.20;;;;;;5014346;28;20045;-67
2023/09/16 07:55:00;;;;;;;9.60;8.18;;;28.30;95.10;;;;;;5009660;28;20053;-67
2023/09/16 07:57:29;;;;;;;8.40;7.60;;;28.40;94.50;;;;;;5025390;28;20504;-68
2023/09/16 07:59:55;;;;;;;9.18;8.23;;;28.70;94.00;;;;;;5012345;28;20457;-67
2023/09/16 08:02:24;;;;;;;9.75;8.05;;;28.90;93.60;;;;;;5014185;28;20046;-67
2023/09/16 08:04:51;;;;;;;10.38;7.28;;;29.30;92.60;;;;;;5029421;28;20092;-67
2023/09/16 08:07:17;;;;;;;9.95;7.85;;;29.30;92.60;;;;;;5030680;28;20056;-66
2023/09/16 08:09:44;;;;;;;8.52;7.50;;;29.60;92.10;;;;;;5013517;28;20108;-68
2023/09/16 08:12:11;;;;;;;10.52;7.05;;;29.70;91.80;;;;;;5014119;28;20054;-68
2023/09/16 08:14:38;;;;;;;9.52;6.85;;;30.20;91.60;;;;;;5014259;28;20100;-67
2023/09/16 08:17:05;;;;;;;9.02;7.38;;;30.20;91.40;;;;;;5014658;28;20096;-67
2023/09/16 08:19:33;;;;;;;7.63;6.70;;;30.50;91.00;;;;;;5017966;28;20050;-67
2023/09/16 08:22:00;;;;;;;7.85;6.95;;;30.50;90.60;;;;;;5015761;28;20038;-67
2023/09/16 08:24:28;;;;;;;11.63;7.25;;;30.40;90.50;;;;;;5017247;28;20445;-67
2023/09/16 08:26:54;;;;;;;7.90;6.57;;;31.00;90.60;;;;;;5017707;28;20078;-68
2023/09/16 08:29:21;;;;;;;7.97;6.85;;;31.10;90.40;;;;;;5017484;28;20068;-68
2023/09/16 08:31:48;;;;;;;8.13;7.32;;;31.20;90.20;;;;;;5016900;28;20104;-68
2023/09/16 08:34:15;;;;;;;6.93;6.22;;;31.00;89.90;;;;;;5033786;28;20064;-67
2023/09/16 08:36:44;;;;;;;9.30;6.18;;;31.30;89.20;;;;;;5017399;28;20054;-68
2023/09/16 08:39:11;;;;;;;10.33;7.17;;;31.30;88.50;;;;;;5032985;28;20052;-68
2023/09/16 08:41:44;;;;;;;7.78;6.90;;;31.80;88.30;;;;;;5017082;28;20498;-67
2023/09/16 08:44:15;;;;;;;7.95;6.72;;;31.50;86.10;;;;;;5031172;28;20497;-67
2023/09/16 08:46:47;;;;;;;7.20;6.50;;;31.90;86.10;;;;;;5016130;28;20045;-68
2023/09/16 08:49:16;;;;;;;7.35;6.03;;;32.00;86.00;;;;;;5016949;28;20100;-67
2023/09/16 08:51:47;;;;;;;;;;;32.20;85.60;;;;;;5017467;28;20358;-68
2023/09/16 08:54:16;;;;;;;7.45;6.65;;;32.50;83.50;;;;;;5032988;28;19928;-66
2023/09/16 08:56:43;;;;;;;;;;;32.50;85.40;;;;;;5020658;28;20049;-67
2023/09/16 08:59:11;;;;;;;8.80;5.90;;;32.50;84.10;;;;;;5052970;28;19920;-67
2023/09/16 09:01:38;;;;;;;7.13;6.38;;;32.80;85.80;;;;;;5053231;28;20420;-68
2023/09/16 09:04:06;;;;;;;7.45;6.40;;;32.90;84.70;;;;;;5020106;28;20104;-68
2023/09/16 09:06:33;;;;;;;5.85;5.20;;;32.80;84.00;;;;;;5034945;28;20060;-69
2023/09/16 09:09:01;;;;;;;8.80;7.28;;;32.70;83.20;;;;;;5020535;28;20050;-69
2023/09/16 09:11:31;;;;;;;8.52;6.65;;;32.90;82.50;;;;;;5019810;28;20079;-68
2023/09/16 09:13:59;;;;;;;10.30;6.45;;;33.00;82.50;;;;;;5040167;28;20048;-68
2023/09/16 09:16:29;;;;;;;6.77;6.07;;;33.20;82.60;;;;;;5041341;28;20107;-68
2023/09/16 09:18:57;;;;;;;8.75;6.13;;;33.30;81.90;;;;;;5023375;28;20060;-69
2023/09/16 09:21:25;;;;;;;10.93;5.65;;;33.90;81.20;;;;;;5027523;28;20133;-69
2023/09/16 09:23:52;;;;;;;6.30;5.35;;;34.20;80.80;;;;;;5042541;28;20060;-69
2023/09/16 09:26:20;;;;;;;7.45;5.00;;;34.60;80.50;;;;;;5048125;28;20059;-68
2023/09/16 09:28:47;;;;;;;5.60;5.00;;;34.80;79.90;;;;;;5028009;28;20732;-69
2023/09/16 09:31:15;;;;;;;7.32;4.93;;;34.40;79.40;;;;;;5032203;28;20056;-69
2023/09/16 09:33:42;;;;;;;8.18;5.95;;;34.50;79.00;;;;;;5035984;28;20053;-69
2023/09/16 09:36:14;;;;;;;8.68;5.40;;;34.20;78.70;;;;;;5031333;28;20048;-69
2023/09/16 09:38:42;;;;;;;6.13;4.20;;;34.30;78.70;;;;;;5040027;28;20049;-69
2023/09/16 09:41:09;;;;;;;7.18;5.53;;;34.40;78.70;;;;;;5031144;28;20049;-68
2023/09/16 09:43:38;;;;;;;8.68;5.35;;;34.40;77.60;;;;;;5022783;28;20041;-69
2023/09/16 09:46:05;;;;;;;5.53;4.53;;;34.40;77.10;;;;;;5033037;28;20122;-69
2023/09/16 09:48:33;;;;;;;5.35;4.85;;;34.50;77.20;;;;;;5023620;28;20052;-69
2023/09/16 09:51:01;;;;;;;6.05;4.90;;;34.50;76.90;;;;;;5029009;28;20508;-70
2023/09/16 09:53:28;;;;;;;5.65;4.20;;;34.50;76.10;;;;;;5031042;28;20508;-69
2023/09/16 09:55:55;;;;;;;7.28;4.32;;;34.70;75.60;;;;;;5040523;28;20498;-70
2023/09/16 09:58:24;;;;;;;5.75;4.30;;;34.90;75.90;;;;;;5030165;28;20071;-69
2023/09/16 10:00:53;;;;;;;5.63;4.00;;;34.50;74.60;;;;;;5028942;28;20056;-71
2023/09/16 10:03:22;;;;;;;5.65;4.07;;;34.90;74.70;;;;;;5047664;28;20500;-70
2023/09/16 10:05:49;;;;;;;6.22;4.65;;;35.10;74.20;;;;;;5028689;28;20057;-70
2023/09/16 10:08:16;;;;;;;7.68;4.70;;;35.30;74.20;;;;;;5030579;28;20102;-69
2023/09/16 10:10:46;;;;;;;5.07;4.28;;;35.70;74.00;;;;;;5027960;28;20064;-68
2023/09/16 10:13:13;;;;;;;6.20;4.57;;;35.20;73.00;;;;;;5023493;28;20056;-68
2023/09/16 10:15:40;;;;;;;6.43;4.55;;;35.50;73.30;;;;;;5018358;28;20056;-69
2023/09/16 10:18:09;;;;;;;5.03;4.05;;;35.40;73.10;;;;;;5029470;28;20048;-69
2023/09/16 10:20:38;;;;;;;6.63;4.60;;;35.00;72.50;;;;;;5025374;28;20052;-69
2023/09/16 10:23:06;;;;;;;5.90;4.57;;;34.90;71.80;;;;;;5021380;28;20045;-68
2023/09/16 10:25:33;;;;;;;5.55;3.33;;;34.80;72.70;;;;;;5017396;28;20432;-70
2023/09/16 10:28:03;;;;;;;5.47;3.90;;;35.00;73.00;;;;;;5021224;28;20084;-68
2023/09/16 10:30:32;;;;;;;6.00;4.65;;;35.60;72.60;;;;;;5045363;28;20059;-68
2023/09/16 10:33:01;;;;;;;6.35;4.35;;;35.50;72.00;;;;;;5019782;28;20574;-68
2023/09/16 10:35:30;;;;;;;7.07;3.90;;;35.10;72.00;;;;;;5017920;28;20469;-69
2023/09/16 10:38:00;;;;;;;5.03;3.22;;;34.90;71.90;;;;;;5023589;28;20053;-69
2023/09/16 10:40:28;;;;;;;8.60;3.70;;;35.20;72.40;;;;;;5029982;28;20045;-69
2023/09/16 10:42:55;;;;;;;7.30;3.85;;;35.60;71.60;;;;;;5038971;28;20485;-69
2023/09/16 10:45:23;;;;;;;7.93;4.63;;;35.70;70.50;;;;;;5031045;28;20095;-69
2023/09/16 10:47:51;;;;;;;14.80;4.47;;;35.40;70.20;;;;;;5019444;28;20061;-69
2023/09/16 10:50:18;;;;;;;10.53;3.20;;;35.90;69.80;;;;;;5031434;28;20059;-70
2023/09/16 10:52:50;;;;;;;12.75;3.30;;;35.90;69.40;;;;;;5027130;28;20520;-69
2023/09/16 10:55:24;;;;;;;4.75;3.85;;;35.80;69.90;;;;;;5038709;28;20090;-69
2023/09/16 10:57:56;;;;;;;7.88;3.63;;;36.10;68.60;;;;;;5024805;28;20056;-68
2023/09/16 11:00:28;;;;;;;4.75;3.83;;;35.80;69.90;;;;;;5025828;28;20170;-69
2023/09/16 11:02:58;;;;;;;7.95;4.07;;;35.90;70.70;;;;;;5029477;28;20410;-70
2023/09/16 11:05:26;;;;;;;4.55;3.42;;;35.80;70.50;;;;;;5027837;28;20095;-69
2023/09/16 11:07:55;;;;;;;6.40;4.65;;;35.80;71.00;;;;;;5029284;28;20084;-68
2023/09/16 11:10:22;;;;;;;;;;;35.60;70.50;;;;;;5025371;28;20088;-67
2023/09/16 11:12:50;;;;;;;6.15;4.00;;;35.30;70.60;;;;;;5017015;28;20642;-68
2023/09/16 11:15:18;;;;;;;10.73;3.92;;;35.50;70.60;;;;;;5028869;28;20467;-68
2023/09/16 11:17:44;;;;;;;4.70;3.30;;;35.70;70.60;;;;;;5030264;28;20120;-67
2023/09/16 11:20:20;;;;;;;4.15;2.90;;;36.10;70.20;;;;;;5020009;28;20060;-67
2023/09/16 11:22:49;;;;;;;4.50;2.60;;;36.40;67.80;;;;;;5035239;28;20562;-68
2023/09/16 11:25:18;;;;;;;4.43;2.33;;;36.40;69.10;;;;;;5030457;28;20052;-67
2023/09/16 11:27:45;;;;;;;4.65;2.83;;;36.40;67.90;;;;;;5029370;28;20049;-68
2023/09/16 11:30:14;;;;;;;4.60;2.47;;;36.50;67.40;;;;;;5022263;28;20115;-69
2023/09/16 11:32:42;;;;;;;5.32;2.50;;;36.60;67.30;;;;;;5020610;28;20045;-69
2023/09/16 11:35:10;;;;;;;3.90;2.60;;;36.30;67.20;;;;;;5035051;28;20084;-68
2023/09/16 11:37:37;;;;;;;5.47;2.30;;;35.50;66.80;;;;;;5039027;28;20088;-68
2023/09/16 11:40:11;;;;;;;3.30;2.00;;;36.00;67.20;;;;;;5029894;28;20477;-69
2023/09/16 11:42:40;;;;;;;9.90;2.63;;;36.60;67.10;;;;;;5042587;28;20497;-68
2023/09/16 11:45:07;;;;;;;;;;;36.30;66.90;;;;;;5023898;28;20505;-68
2023/09/16 11:47:34;;;;;;;3.95;2.28;;;36.10;66.80;;;;;;5028933;28;19932;-67
2023/09/16 11:50:01;;;;;;;5.93;3.25;;;36.60;67.80;;;;;;5014921;28;20072;-69
2023/09/16 11:52:29;;;;;;;4.35;2.75;;;36.20;67.30;;;;;;5029500;28;20049;-69
2023/09/16 11:54:56;;;;;;;6.22;2.60;;;36.20;67.00;;;;;;5033364;28;20057;-69
2023/09/16 11:57:23;;;;;;;4.32;2.13;;;36.00;68.30;;;;;;5046052;28;20056;-69
2023/09/16 11:59:52;;;;;;;4.45;2.40;;;36.10;68.10;;;;;;5026995;28;20126;-69
2023/09/16 12:02:19;;;;;;;7.25;3.30;;;35.80;67.00;;;;;;5031145;28;20053;-68
2023/09/16 12:04:46;;;;;;;4.30;2.65;;;35.20;67.50;;;;;;5043933;28;20064;-69
2023/09/16 12:07:14;;;;;;;4.40;2.50;;;34.70;68.20;;;;;;5027720;28;20440;-69
2023/09/16 12:09:41;;;;;;;3.50;2.57;;;34.10;67.90;;;;;;5031506;28;20448;-69
2023/09/16 12:12:09;;;;;;;4.18;2.55;;;33.20;68.90;;;;;;5047366;28;20041;-68
2023/09/16 12:14:38;;;;;;;3.97;2.33;;;32.70;69.90;;;;;;5029463;28;20085;-68
2023/09/16 12:17:06;;;;;;;5.70;2.33;;;32.50;70.60;;;;;;5033762;28;20448;-69
2023/09/16 12:19:34;;;;;;;3.92;2.53;;;32.10;69.90;;;;;;5027818;28;20049;-68
2023/09/16 12:22:01;;;;;;;5.93;3.03;;;31.30;70.70;;;;;;5028703;28;20130;-68
2023/09/16 12:24:28;;;;;;;4.07;2.45;;;31.60;70.70;;;;;;5027897;28;20448;-68
2023/09/16 12:26:55;;;;;;;5.03;2.42;;;31.60;70.10;;;;;;5018784;28;20573;-67
2023/09/16 12:29:22;;;;;;;5.07;2.30;;;31.80;69.60;;;;;;5015599;28;20432;-67
2023/09/16 12:31:50;;;;;;;3.67;2.00;;;31.50;70.80;;;;;;5019407;28;20501;-68
2023/09/16 12:34:19;;;;;;;5.95;2.17;;;31.20;71.70;;;;;;5020293;28;20140;-67
2023/09/16 12:36:50;;;;;;;;;;;31.20;71.80;;;;;;5020915;28;20104;-67